sensor_id;sensor_type;location;lat;lon;timestamp;temperature;humidity
22852;DHT22;11592;45.460;9.240;2022-07-22T00:00:53;30.50;86.60
22852;DHT22;11592;45.460;9.240;2022-07-22T00:03:20;30.60;85.60
22852;DHT22;11592;45.460;9.240;2022-07-22T00:05:47;30.50;86.70
22852;DHT22;11592;45.460;9.240;2022-07-22T00:08:14;30.40;87.40
22852;DHT22;11592;45.460;9.240;2022-07-22T00:10:41;30.30;89.60
22852;DHT22;11592;45.460;9.240;2022-07-22T00:13:08;30.40;89.70
22852;DHT22;11592;45.460;9.240;2022-07-22T00:15:35;30.30;88.80
22852;DHT22;11592;45.460;9.240;2022-07-22T00:18:01;30.20;89.70
22852;DHT22;11592;45.460;9.240;2022-07-22T00:20:29;30.10;89.50
22852;DHT22;11592;45.460;9.240;2022-07-22T00:22:55;30.20;88.70
22852;DHT22;11592;45.460;9.240;2022-07-22T00:25:23;30.20;86.70
22852;DHT22;11592;45.460;9.240;2022-07-22T00:27:50;30.30;86.00
22852;DHT22;11592;45.460;9.240;2022-07-22T00:30:17;30.40;86.20
22852;DHT22;11592;45.460;9.240;2022-07-22T00:32:43;30.50;85.20
22852;DHT22;11592;45.460;9.240;2022-07-22T00:35:10;30.50;86.60
22852;DHT22;11592;45.460;9.240;2022-07-22T00:37:37;30.30;89.00
22852;DHT22;11592;45.460;9.240;2022-07-22T00:40:04;30.30;87.20
22852;DHT22;11592;45.460;9.240;2022-07-22T00:42:31;30.30;87.00
22852;DHT22;11592;45.460;9.240;2022-07-22T00:44:58;30.30;85.80
22852;DHT22;11592;45.460;9.240;2022-07-22T00:47:26;30.30;85.60
22852;DHT22;11592;45.460;9.240;2022-07-22T00:49:53;30.30;86.20
22852;DHT22;11592;45.460;9.240;2022-07-22T00:52:21;30.20;86.20
22852;DHT22;11592;45.460;9.240;2022-07-22T00:54:49;30.20;85.80
22852;DHT22;11592;45.460;9.240;2022-07-22T00:57:16;30.20;87.10
22852;DHT22;11592;45.460;9.240;2022-07-22T00:59:43;30.20;87.10
22852;DHT22;11592;45.460;9.240;2022-07-22T01:02:10;30.10;87.30
22852;DHT22;11592;45.460;9.240;2022-07-22T01:04:37;30.00;88.00
22852;DHT22;11592;45.460;9.240;2022-07-22T01:07:04;29.90;88.90
22852;DHT22;11592;45.460;9.240;2022-07-22T01:09:31;29.90;88.20
22852;DHT22;11592;45.460;9.240;2022-07-22T01:11:58;29.80;87.50
22852;DHT22;11592;45.460;9.240;2022-07-22T01:14:25;29.80;88.50
22852;DHT22;11592;45.460;9.240;2022-07-22T01:16:52;29.80;90.20
22852;DHT22;11592;45.460;9.240;2022-07-22T01:19:19;29.70;90.10
22852;DHT22;11592;45.460;9.240;2022-07-22T01:21:46;29.70;90.10
22852;DHT22;11592;45.460;9.240;2022-07-22T01:24:13;29.70;90.50
22852;DHT22;11592;45.460;9.240;2022-07-22T01:26:40;29.60;91.10
22852;DHT22;11592;45.460;9.240;2022-07-22T01:29:07;29.60;91.20
22852;DHT22;11592;45.460;9.240;2022-07-22T01:31:34;29.50;93.10
22852;DHT22;11592;45.460;9.240;2022-07-22T01:34:01;29.40;94.50
22852;DHT22;11592;45.460;9.240;2022-07-22T01:36:28;29.40;95.60
22852;DHT22;11592;45.460;9.240;2022-07-22T01:38:56;29.40;95.60
22852;DHT22;11592;45.460;9.240;2022-07-22T01:41:23;29.40;94.60
22852;DHT22;11592;45.460;9.240;2022-07-22T01:43:50;29.50;93.30
22852;DHT22;11592;45.460;9.240;2022-07-22T01:46:16;29.50;93.60
22852;DHT22;11592;45.460;9.240;2022-07-22T01:48:45;29.30;94.70
22852;DHT22;11592;45.460;9.240;2022-07-22T01:51:12;29.30;95.00
22852;DHT22;11592;45.460;9.240;2022-07-22T01:53:38;29.20;94.60
22852;DHT22;11592;45.460;9.240;2022-07-22T01:56:06;29.30;96.60
22852;DHT22;11592;45.460;9.240;2022-07-22T01:58:32;29.20;96.00
22852;DHT22;11592;45.460;9.240;2022-07-22T02:01:06;29.30;94.30
22852;DHT22;11592;45.460;9.240;2022-07-22T02:03:34;29.30;97.30
22852;DHT22;11592;45.460;9.240;2022-07-22T02:06:02;29.20;99.00
22852;DHT22;11592;45.460;9.240;2022-07-22T02:08:28;29.10;97.40
22852;DHT22;11592;45.460;9.240;2022-07-22T02:10:55;29.10;96.60
22852;DHT22;11592;45.460;9.240;2022-07-22T02:13:22;29.10;96.30
22852;DHT22;11592;45.460;9.240;2022-07-22T02:15:49;29.00;97.90
22852;DHT22;11592;45.460;9.240;2022-07-22T02:18:17;29.10;96.30
22852;DHT22;11592;45.460;9.240;2022-07-22T02:20:45;29.10;96.80
22852;DHT22;11592;45.460;9.240;2022-07-22T02:23:12;29.10;97.60
22852;DHT22;11592;45.460;9.240;2022-07-22T02:25:40;29.00;97.20
22852;DHT22;11592;45.460;9.240;2022-07-22T02:28:07;29.00;97.70
22852;DHT22;11592;45.460;9.240;2022-07-22T02:30:34;29.00;95.90
22852;DHT22;11592;45.460;9.240;2022-07-22T02:33:01;29.00;95.90
22852;DHT22;11592;45.460;9.240;2022-07-22T02:35:28;29.10;97.20
22852;DHT22;11592;45.460;9.240;2022-07-22T02:37:56;29.00;97.90
22852;DHT22;11592;45.460;9.240;2022-07-22T02:40:23;29.00;97.50
22852;DHT22;11592;45.460;9.240;2022-07-22T02:42:50;28.90;96.80
22852;DHT22;11592;45.460;9.240;2022-07-22T02:45:17;29.00;95.70
22852;DHT22;11592;45.460;9.240;2022-07-22T02:47:48;28.90;96.70
22852;DHT22;11592;45.460;9.240;2022-07-22T02:50:15;28.90;95.80
22852;DHT22;11592;45.460;9.240;2022-07-22T02:52:42;28.80;96.90
22852;DHT22;11592;45.460;9.240;2022-07-22T02:55:10;28.70;97.20
22852;DHT22;11592;45.460;9.240;2022-07-22T02:57:37;28.70;97.20
22852;DHT22;11592;45.460;9.240;2022-07-22T03:00:06;28.60;97.60
22852;DHT22;11592;45.460;9.240;2022-07-22T03:02:35;28.60;96.80
22852;DHT22;11592;45.460;9.240;2022-07-22T03:05:03;28.60;97.60
22852;DHT22;11592;45.460;9.240;2022-07-22T03:07:31;28.50;98.90
22852;DHT22;11592;45.460;9.240;2022-07-22T03:09:58;28.40;98.90
22852;DHT22;11592;45.460;9.240;2022-07-22T03:12:28;28.40;98.50
22852;DHT22;11592;45.460;9.240;2022-07-22T03:14:55;28.30;98.10
22852;DHT22;11592;45.460;9.240;2022-07-22T03:17:22;28.40;97.10
22852;DHT22;11592;45.460;9.240;2022-07-22T03:19:48;28.40;98.60
22852;DHT22;11592;45.460;9.240;2022-07-22T03:22:15;28.40;98.30
22852;DHT22;11592;45.460;9.240;2022-07-22T03:24:42;28.30;99.90
22852;DHT22;11592;45.460;9.240;2022-07-22T03:27:09;28.30;99.90
22852;DHT22;11592;45.460;9.240;2022-07-22T03:29:35;28.30;97.20
22852;DHT22;11592;45.460;9.240;2022-07-22T03:32:02;28.30;96.90
22852;DHT22;11592;45.460;9.240;2022-07-22T03:34:29;28.30;98.50
22852;DHT22;11592;45.460;9.240;2022-07-22T03:36:56;28.30;98.40
22852;DHT22;11592;45.460;9.240;2022-07-22T03:39:23;28.30;98.60
22852;DHT22;11592;45.460;9.240;2022-07-22T03:41:49;28.30;98.20
22852;DHT22;11592;45.460;9.240;2022-07-22T03:44:16;28.20;98.50
22852;DHT22;11592;45.460;9.240;2022-07-22T03:46:43;28.20;98.30
22852;DHT22;11592;45.460;9.240;2022-07-22T03:49:10;28.10;98.90
22852;DHT22;11592;45.460;9.240;2022-07-22T03:51:36;28.30;98.40
22852;DHT22;11592;45.460;9.240;2022-07-22T03:54:04;28.20;99.70
22852;DHT22;11592;45.460;9.240;2022-07-22T03:56:30;28.20;99.80
22852;DHT22;11592;45.460;9.240;2022-07-22T03:58:57;28.20;99.00
22852;DHT22;11592;45.460;9.240;2022-07-22T04:01:25;28.20;98.40
22852;DHT22;11592;45.460;9.240;2022-07-22T04:03:52;28.10;97.00
22852;DHT22;11592;45.460;9.240;2022-07-22T04:06:18;28.20;96.40
22852;DHT22;11592;45.460;9.240;2022-07-22T04:08:45;28.20;95.90
22852;DHT22;11592;45.460;9.240;2022-07-22T04:11:12;28.20;96.70
22852;DHT22;11592;45.460;9.240;2022-07-22T04:13:39;28.20;96.10
22852;DHT22;11592;45.460;9.240;2022-07-22T04:16:05;28.30;96.90
22852;DHT22;11592;45.460;9.240;2022-07-22T04:18:32;28.20;97.30
22852;DHT22;11592;45.460;9.240;2022-07-22T04:21:00;28.20;98.30
22852;DHT22;11592;45.460;9.240;2022-07-22T04:23:27;28.20;97.80
22852;DHT22;11592;45.460;9.240;2022-07-22T04:25:53;28.20;97.80
22852;DHT22;11592;45.460;9.240;2022-07-22T04:28:20;28.20;97.30
22852;DHT22;11592;45.460;9.240;2022-07-22T04:30:47;28.20;98.70
22852;DHT22;11592;45.460;9.240;2022-07-22T04:33:14;28.20;98.70
22852;DHT22;11592;45.460;9.240;2022-07-22T04:35:41;28.20;98.30
22852;DHT22;11592;45.460;9.240;2022-07-22T04:38:07;28.20;97.10
22852;DHT22;11592;45.460;9.240;2022-07-22T04:40:34;28.30;96.80
22852;DHT22;11592;45.460;9.240;2022-07-22T04:43:01;28.30;97.00
22852;DHT22;11592;45.460;9.240;2022-07-22T04:45:28;28.40;96.20
22852;DHT22;11592;45.460;9.240;2022-07-22T04:47:55;28.50;96.50
22852;DHT22;11592;45.460;9.240;2022-07-22T04:50:21;28.50;95.60
22852;DHT22;11592;45.460;9.240;2022-07-22T04:52:48;28.50;96.10
22852;DHT22;11592;45.460;9.240;2022-07-22T04:55:15;28.50;96.30
22852;DHT22;11592;45.460;9.240;2022-07-22T04:57:42;28.40;98.00
22852;DHT22;11592;45.460;9.240;2022-07-22T05:00:09;28.30;98.30
22852;DHT22;11592;45.460;9.240;2022-07-22T05:02:36;28.30;98.50
22852;DHT22;11592;45.460;9.240;2022-07-22T05:05:03;28.40;97.60
22852;DHT22;11592;45.460;9.240;2022-07-22T05:07:30;28.40;97.10
22852;DHT22;11592;45.460;9.240;2022-07-22T05:09:57;28.40;97.60
22852;DHT22;11592;45.460;9.240;2022-07-22T05:12:23;28.60;96.30
22852;DHT22;11592;45.460;9.240;2022-07-22T05:14:50;28.70;95.90
22852;DHT22;11592;45.460;9.240;2022-07-22T05:17:17;28.70;96.20
22852;DHT22;11592;45.460;9.240;2022-07-22T05:19:44;28.70;96.60
22852;DHT22;11592;45.460;9.240;2022-07-22T05:22:10;28.80;96.00
22852;DHT22;11592;45.460;9.240;2022-07-22T05:24:37;28.90;96.00
22852;DHT22;11592;45.460;9.240;2022-07-22T05:27:04;28.90;95.60
22852;DHT22;11592;45.460;9.240;2022-07-22T05:29:31;28.90;96.30
22852;DHT22;11592;45.460;9.240;2022-07-22T05:31:59;29.00;96.90
22852;DHT22;11592;45.460;9.240;2022-07-22T05:34:25;29.00;96.80
22852;DHT22;11592;45.460;9.240;2022-07-22T05:36:52;29.00;96.70
22852;DHT22;11592;45.460;9.240;2022-07-22T05:39:19;29.10;96.20
22852;DHT22;11592;45.460;9.240;2022-07-22T05:41:46;29.10;95.70
22852;DHT22;11592;45.460;9.240;2022-07-22T05:44:18;29.20;94.70
22852;DHT22;11592;45.460;9.240;2022-07-22T05:46:44;31.10;94.40
22852;DHT22;11592;45.460;9.240;2022-07-22T05:49:11;29.40;93.10
22852;DHT22;11592;45.460;9.240;2022-07-22T05:51:38;29.50;93.20
22852;DHT22;11592;45.460;9.240;2022-07-22T05:54:05;29.50;92.40
22852;DHT22;11592;45.460;9.240;2022-07-22T05:56:31;29.60;91.60
22852;DHT22;11592;45.460;9.240;2022-07-22T05:58:58;29.60;91.30
22852;DHT22;11592;45.460;9.240;2022-07-22T06:01:26;30.70;92.00
22852;DHT22;11592;45.460;9.240;2022-07-22T06:03:53;29.70;91.70
22852;DHT22;11592;45.460;9.240;2022-07-22T06:06:20;29.80;91.80
22852;DHT22;11592;45.460;9.240;2022-07-22T06:08:47;29.80;90.90
22852;DHT22;11592;45.460;9.240;2022-07-22T06:11:19;29.80;90.50
22852;DHT22;11592;45.460;9.240;2022-07-22T06:13:46;29.90;90.80
22852;DHT22;11592;45.460;9.240;2022-07-22T06:16:13;29.90;90.60
22852;DHT22;11592;45.460;9.240;2022-07-22T06:18:40;30.00;91.00
22852;DHT22;11592;45.460;9.240;2022-07-22T06:21:06;28.80;90.30
22852;DHT22;11592;45.460;9.240;2022-07-22T06:23:34;30.00;90.20
22852;DHT22;11592;45.460;9.240;2022-07-22T06:26:01;28.80;89.60
22852;DHT22;11592;45.460;9.240;2022-07-22T06:28:28;30.00;90.30
22852;DHT22;11592;45.460;9.240;2022-07-22T06:30:55;30.10;90.50
22852;DHT22;11592;45.460;9.240;2022-07-22T06:33:22;30.20;89.80
22852;DHT22;11592;45.460;9.240;2022-07-22T06:35:49;30.20;89.70
22852;DHT22;11592;45.460;9.240;2022-07-22T06:38:16;30.30;89.00
22852;DHT22;11592;45.460;9.240;2022-07-22T06:41:02;30.40;88.70
22852;DHT22;11592;45.460;9.240;2022-07-22T06:43:30;30.60;88.30
22852;DHT22;11592;45.460;9.240;2022-07-22T06:45:56;30.60;88.20
22852;DHT22;11592;45.460;9.240;2022-07-22T06:48:23;30.50;86.80
22852;DHT22;11592;45.460;9.240;2022-07-22T06:50:50;30.50;86.00
22852;DHT22;11592;45.460;9.240;2022-07-22T06:53:19;30.60;85.80
22852;DHT22;11592;45.460;9.240;2022-07-22T06:55:46;30.60;84.40
22852;DHT22;11592;45.460;9.240;2022-07-22T06:58:13;30.70;84.80
22852;DHT22;11592;45.460;9.240;2022-07-22T07:00:40;30.80;83.90
22852;DHT22;11592;45.460;9.240;2022-07-22T07:03:06;30.70;82.60
22852;DHT22;11592;45.460;9.240;2022-07-22T07:05:53;30.90;82.50
22852;DHT22;11592;45.460;9.240;2022-07-22T07:08:20;30.90;83.00
22852;DHT22;11592;45.460;9.240;2022-07-22T07:10:48;31.00;83.00
22852;DHT22;11592;45.460;9.240;2022-07-22T07:13:15;31.10;83.20
22852;DHT22;11592;45.460;9.240;2022-07-22T07:15:42;31.10;81.40
22852;DHT22;11592;45.460;9.240;2022-07-22T07:18:08;31.30;83.30
22852;DHT22;11592;45.460;9.240;2022-07-22T07:20:35;31.30;83.20
22852;DHT22;11592;45.460;9.240;2022-07-22T07:23:03;31.30;82.20
22852;DHT22;11592;45.460;9.240;2022-07-22T07:25:31;31.30;82.50
22852;DHT22;11592;45.460;9.240;2022-07-22T07:27:58;31.40;81.60
22852;DHT22;11592;45.460;9.240;2022-07-22T07:30:26;31.40;80.90
22852;DHT22;11592;45.460;9.240;2022-07-22T07:32:53;31.00;80.90
22852;DHT22;11592;45.460;9.240;2022-07-22T07:35:20;31.40;80.40
22852;DHT22;11592;45.460;9.240;2022-07-22T07:37:50;31.40;81.20
22852;DHT22;11592;45.460;9.240;2022-07-22T07:40:17;31.50;80.80
22852;DHT22;11592;45.460;9.240;2022-07-22T07:42:44;31.50;79.40
22852;DHT22;11592;45.460;9.240;2022-07-22T07:45:14;31.60;78.40
22852;DHT22;11592;45.460;9.240;2022-07-22T07:47:41;31.70;80.30
22852;DHT22;11592;45.460;9.240;2022-07-22T07:50:09;31.70;78.60
22852;DHT22;11592;45.460;9.240;2022-07-22T07:52:40;31.70;77.50
22852;DHT22;11592;45.460;9.240;2022-07-22T07:55:16;31.80;77.10
22852;DHT22;11592;45.460;9.240;2022-07-22T07:57:46;31.80;77.20
22852;DHT22;11592;45.460;9.240;2022-07-22T08:00:19;31.90;75.90
22852;DHT22;11592;45.460;9.240;2022-07-22T08:02:47;32.00;78.00
22852;DHT22;11592;45.460;9.240;2022-07-22T08:05:14;32.00;75.70
22852;DHT22;11592;45.460;9.240;2022-07-22T08:07:42;32.10;75.50
22852;DHT22;11592;45.460;9.240;2022-07-22T08:10:09;32.20;76.50
22852;DHT22;11592;45.460;9.240;2022-07-22T08:12:56;32.30;77.60
22852;DHT22;11592;45.460;9.240;2022-07-22T08:15:28;32.40;77.50
22852;DHT22;11592;45.460;9.240;2022-07-22T08:17:55;32.40;76.80
22852;DHT22;11592;45.460;9.240;2022-07-22T08:20:23;32.40;77.90
22852;DHT22;11592;45.460;9.240;2022-07-22T08:22:52;32.40;75.70
22852;DHT22;11592;45.460;9.240;2022-07-22T08:25:19;32.40;75.20
22852;DHT22;11592;45.460;9.240;2022-07-22T08:27:47;32.40;75.90
22852;DHT22;11592;45.460;9.240;2022-07-22T08:30:14;32.60;75.30
22852;DHT22;11592;45.460;9.240;2022-07-22T08:32:41;32.60;74.80
22852;DHT22;11592;45.460;9.240;2022-07-22T08:35:08;32.70;73.10
22852;DHT22;11592;45.460;9.240;2022-07-22T08:37:36;32.70;72.20
22852;DHT22;11592;45.460;9.240;2022-07-22T08:40:05;32.80;73.20
22852;DHT22;11592;45.460;9.240;2022-07-22T08:42:37;32.90;73.60
22852;DHT22;11592;45.460;9.240;2022-07-22T08:45:05;33.10;73.60
22852;DHT22;11592;45.460;9.240;2022-07-22T08:47:33;33.10;73.60
22852;DHT22;11592;45.460;9.240;2022-07-22T08:50:06;33.10;72.70
22852;DHT22;11592;45.460;9.240;2022-07-22T08:52:33;33.00;71.80
22852;DHT22;11592;45.460;9.240;2022-07-22T08:55:03;33.00;71.30
22852;DHT22;11592;45.460;9.240;2022-07-22T08:57:30;33.00;73.00
22852;DHT22;11592;45.460;9.240;2022-07-22T08:59:59;33.00;72.40
22852;DHT22;11592;45.460;9.240;2022-07-22T09:02:27;33.10;72.60
22852;DHT22;11592;45.460;9.240;2022-07-22T09:04:57;33.10;71.10
22852;DHT22;11592;45.460;9.240;2022-07-22T09:07:33;33.10;70.10
22852;DHT22;11592;45.460;9.240;2022-07-22T09:10:03;33.10;71.10
22852;DHT22;11592;45.460;9.240;2022-07-22T09:12:30;33.30;73.60
22852;DHT22;11592;45.460;9.240;2022-07-22T09:15:02;33.50;72.10
22852;DHT22;11592;45.460;9.240;2022-07-22T09:17:32;33.70;70.60
22852;DHT22;11592;45.460;9.240;2022-07-22T09:20:16;33.80;70.30
22852;DHT22;11592;45.460;9.240;2022-07-22T09:22:51;33.90;68.50
22852;DHT22;11592;45.460;9.240;2022-07-22T09:25:36;33.90;67.00
22852;DHT22;11592;45.460;9.240;2022-07-22T09:30:39;33.90;65.00
22852;DHT22;11592;45.460;9.240;2022-07-22T09:33:08;34.00;67.20
22852;DHT22;11592;45.460;9.240;2022-07-22T09:35:36;34.10;67.00
22852;DHT22;11592;45.460;9.240;2022-07-22T09:38:05;34.10;65.90
22852;DHT22;11592;45.460;9.240;2022-07-22T09:40:43;34.10;65.50
22852;DHT22;11592;45.460;9.240;2022-07-22T09:43:15;34.00;65.50
22852;DHT22;11592;45.460;9.240;2022-07-22T09:45:48;34.10;66.20
22852;DHT22;11592;45.460;9.240;2022-07-22T09:48:17;34.30;68.00
22852;DHT22;11592;45.460;9.240;2022-07-22T09:50:46;34.40;66.80
22852;DHT22;11592;45.460;9.240;2022-07-22T09:53:13;34.20;65.30
22852;DHT22;11592;45.460;9.240;2022-07-22T09:55:40;34.10;66.50
22852;DHT22;11592;45.460;9.240;2022-07-22T09:58:08;34.30;67.20
22852;DHT22;11592;45.460;9.240;2022-07-22T10:00:36;34.30;67.40
22852;DHT22;11592;45.460;9.240;2022-07-22T10:03:06;34.40;67.40
22852;DHT22;11592;45.460;9.240;2022-07-22T10:05:36;34.20;66.30
22852;DHT22;11592;45.460;9.240;2022-07-22T10:08:05;34.30;66.60
22852;DHT22;11592;45.460;9.240;2022-07-22T10:10:34;34.40;67.40
22852;DHT22;11592;45.460;9.240;2022-07-22T10:13:02;34.40;66.80
22852;DHT22;11592;45.460;9.240;2022-07-22T10:15:30;34.50;64.80
22852;DHT22;11592;45.460;9.240;2022-07-22T10:18:07;34.60;65.60
22852;DHT22;11592;45.460;9.240;2022-07-22T10:20:35;34.50;63.30
22852;DHT22;11592;45.460;9.240;2022-07-22T10:23:04;34.40;61.80
22852;DHT22;11592;45.460;9.240;2022-07-22T10:25:54;34.20;60.90
22852;DHT22;11592;45.460;9.240;2022-07-22T10:28:26;34.40;61.50
22852;DHT22;11592;45.460;9.240;2022-07-22T10:33:41;34.60;61.60
22852;DHT22;11592;45.460;9.240;2022-07-22T10:36:07;34.60;62.00
22852;DHT22;11592;45.460;9.240;2022-07-22T10:38:36;34.70;63.10
22852;DHT22;11592;45.460;9.240;2022-07-22T10:41:04;34.90;63.10
22852;DHT22;11592;45.460;9.240;2022-07-22T10:46:08;35.30;65.30
22852;DHT22;11592;45.460;9.240;2022-07-22T10:53:57;36.00;63.20
22852;DHT22;11592;45.460;9.240;2022-07-22T11:01:26;35.90;58.80
22852;DHT22;11592;45.460;9.240;2022-07-22T11:03:55;35.90;58.60
22852;DHT22;11592;45.460;9.240;2022-07-22T11:08:53;35.80;54.60
22852;DHT22;11592;45.460;9.240;2022-07-22T11:11:35;36.10;57.50
22852;DHT22;11592;45.460;9.240;2022-07-22T11:14:02;36.30;55.30
22852;DHT22;11592;45.460;9.240;2022-07-22T11:16:29;36.40;56.30
22852;DHT22;11592;45.460;9.240;2022-07-22T11:18:59;36.60;57.00
22852;DHT22;11592;45.460;9.240;2022-07-22T11:21:28;36.70;56.30
22852;DHT22;11592;45.460;9.240;2022-07-22T11:24:03;36.90;57.20
22852;DHT22;11592;45.460;9.240;2022-07-22T11:26:41;37.10;59.50
22852;DHT22;11592;45.460;9.240;2022-07-22T11:29:09;37.20;59.60
22852;DHT22;11592;45.460;9.240;2022-07-22T11:31:38;37.20;56.70
22852;DHT22;11592;45.460;9.240;2022-07-22T11:34:13;37.20;56.40
22852;DHT22;11592;45.460;9.240;2022-07-22T11:36:42;37.40;58.60
22852;DHT22;11592;45.460;9.240;2022-07-22T11:39:13;37.50;59.00
22852;DHT22;11592;45.460;9.240;2022-07-22T11:41:40;37.60;57.20
22852;DHT22;11592;45.460;9.240;2022-07-22T11:44:07;37.60;54.00
22852;DHT22;11592;45.460;9.240;2022-07-22T11:46:39;37.60;55.20
22852;DHT22;11592;45.460;9.240;2022-07-22T11:49:08;37.90;57.90
22852;DHT22;11592;45.460;9.240;2022-07-22T11:51:37;38.10;56.40
22852;DHT22;11592;45.460;9.240;2022-07-22T11:54:05;38.20;54.60
22852;DHT22;11592;45.460;9.240;2022-07-22T11:56:33;38.30;54.10
22852;DHT22;11592;45.460;9.240;2022-07-22T11:59:01;38.30;53.10
22852;DHT22;11592;45.460;9.240;2022-07-22T12:01:35;37.00;52.40
22852;DHT22;11592;45.460;9.240;2022-07-22T12:04:08;38.40;54.30
22852;DHT22;11592;45.460;9.240;2022-07-22T12:06:38;38.50;54.50
22852;DHT22;11592;45.460;9.240;2022-07-22T12:09:14;37.70;53.80
22852;DHT22;11592;45.460;9.240;2022-07-22T12:11:44;38.80;53.50
22852;DHT22;11592;45.460;9.240;2022-07-22T12:14:13;39.00;55.40
22852;DHT22;11592;45.460;9.240;2022-07-22T12:16:43;39.30;57.00
22852;DHT22;11592;45.460;9.240;2022-07-22T12:19:12;39.40;54.00
22852;DHT22;11592;45.460;9.240;2022-07-22T12:21:57;39.60;52.70
22852;DHT22;11592;45.460;9.240;2022-07-22T12:26:55;39.10;50.10
22852;DHT22;11592;45.460;9.240;2022-07-22T12:31:56;39.10;50.60
22852;DHT22;11592;45.460;9.240;2022-07-22T12:36:56;39.60;52.30
22852;DHT22;11592;45.460;9.240;2022-07-22T12:39:23;40.00;51.00
22852;DHT22;11592;45.460;9.240;2022-07-22T12:41:53;40.40;53.20
22852;DHT22;11592;45.460;9.240;2022-07-22T12:44:25;38.80;48.50
22852;DHT22;11592;45.460;9.240;2022-07-22T12:46:58;40.90;50.00
22852;DHT22;11592;45.460;9.240;2022-07-22T12:49:25;41.10;50.70
22852;DHT22;11592;45.460;9.240;2022-07-22T12:52:11;41.30;50.80
22852;DHT22;11592;45.460;9.240;2022-07-22T12:54:39;41.60;49.10
22852;DHT22;11592;45.460;9.240;2022-07-22T12:57:08;41.90;50.80
22852;DHT22;11592;45.460;9.240;2022-07-22T12:59:35;42.10;51.80
22852;DHT22;11592;45.460;9.240;2022-07-22T13:02:03;42.40;51.40
22852;DHT22;11592;45.460;9.240;2022-07-22T13:04:30;42.60;51.30
22852;DHT22;11592;45.460;9.240;2022-07-22T13:06:57;42.70;48.30
22852;DHT22;11592;45.460;9.240;2022-07-22T13:09:24;42.60;49.50
22852;DHT22;11592;45.460;9.240;2022-07-22T13:11:51;42.80;51.10
22852;DHT22;11592;45.460;9.240;2022-07-22T13:14:17;43.00;47.90
22852;DHT22;11592;45.460;9.240;2022-07-22T13:16:44;43.10;47.30
22852;DHT22;11592;45.460;9.240;2022-07-22T13:19:11;43.20;50.00
22852;DHT22;11592;45.460;9.240;2022-07-22T13:21:38;43.40;47.40
22852;DHT22;11592;45.460;9.240;2022-07-22T13:24:05;43.50;48.20
22852;DHT22;11592;45.460;9.240;2022-07-22T13:26:32;43.50;46.30
22852;DHT22;11592;45.460;9.240;2022-07-22T13:28:59;43.40;47.30
22852;DHT22;11592;45.460;9.240;2022-07-22T13:31:26;43.20;46.70
22852;DHT22;11592;45.460;9.240;2022-07-22T13:33:53;43.20;47.00
22852;DHT22;11592;45.460;9.240;2022-07-22T13:36:21;43.40;47.70
22852;DHT22;11592;45.460;9.240;2022-07-22T13:38:49;43.80;48.50
22852;DHT22;11592;45.460;9.240;2022-07-22T13:41:17;43.90;46.00
22852;DHT22;11592;45.460;9.240;2022-07-22T13:43:45;43.60;45.60
22852;DHT22;11592;45.460;9.240;2022-07-22T13:46:12;43.70;47.80
22852;DHT22;11592;45.460;9.240;2022-07-22T13:48:39;44.20;49.50
22852;DHT22;11592;45.460;9.240;2022-07-22T13:51:06;44.50;47.30
22852;DHT22;11592;45.460;9.240;2022-07-22T13:53:33;44.40;48.80
22852;DHT22;11592;45.460;9.240;2022-07-22T13:56:00;44.60;48.20
22852;DHT22;11592;45.460;9.240;2022-07-22T13:58:27;44.80;46.90
22852;DHT22;11592;45.460;9.240;2022-07-22T14:00:54;44.80;46.00
22852;DHT22;11592;45.460;9.240;2022-07-22T14:03:21;44.80;46.70
22852;DHT22;11592;45.460;9.240;2022-07-22T14:05:47;44.90;46.30
22852;DHT22;11592;45.460;9.240;2022-07-22T14:08:14;45.00;45.60
22852;DHT22;11592;45.460;9.240;2022-07-22T14:10:41;45.20;46.90
22852;DHT22;11592;45.460;9.240;2022-07-22T14:13:08;45.30;45.30
22852;DHT22;11592;45.460;9.240;2022-07-22T14:15:35;45.50;46.20
22852;DHT22;11592;45.460;9.240;2022-07-22T14:18:02;45.50;45.20
22852;DHT22;11592;45.460;9.240;2022-07-22T14:20:34;45.50;45.00
22852;DHT22;11592;45.460;9.240;2022-07-22T14:23:01;45.40;46.70
22852;DHT22;11592;45.460;9.240;2022-07-22T14:25:28;45.40;46.00
22852;DHT22;11592;45.460;9.240;2022-07-22T14:27:55;45.40;45.10
22852;DHT22;11592;45.460;9.240;2022-07-22T14:30:41;45.50;45.10
22852;DHT22;11592;45.460;9.240;2022-07-22T14:33:08;45.50;46.40
22852;DHT22;11592;45.460;9.240;2022-07-22T14:35:35;45.60;45.70
22852;DHT22;11592;45.460;9.240;2022-07-22T14:38:02;45.10;43.80
22852;DHT22;11592;45.460;9.240;2022-07-22T14:40:29;45.90;45.80
22852;DHT22;11592;45.460;9.240;2022-07-22T14:42:56;45.10;45.80
22852;DHT22;11592;45.460;9.240;2022-07-22T14:45:42;45.00;43.40
22852;DHT22;11592;45.460;9.240;2022-07-22T14:48:09;44.60;43.90
22852;DHT22;11592;45.460;9.240;2022-07-22T14:50:36;44.60;45.80
22852;DHT22;11592;45.460;9.240;2022-07-22T14:53:03;44.70;44.30
22852;DHT22;11592;45.460;9.240;2022-07-22T14:55:30;44.90;45.90
22852;DHT22;11592;45.460;9.240;2022-07-22T14:57:56;44.90;47.10
22852;DHT22;11592;45.460;9.240;2022-07-22T15:00:23;45.10;46.20
22852;DHT22;11592;45.460;9.240;2022-07-22T15:02:50;45.10;46.60
22852;DHT22;11592;45.460;9.240;2022-07-22T15:05:16;45.10;47.70
22852;DHT22;11592;45.460;9.240;2022-07-22T15:07:43;44.90;45.50
22852;DHT22;11592;45.460;9.240;2022-07-22T15:10:10;45.00;46.70
22852;DHT22;11592;45.460;9.240;2022-07-22T15:12:37;44.90;47.80
22852;DHT22;11592;45.460;9.240;2022-07-22T15:15:14;44.70;47.70
22852;DHT22;11592;45.460;9.240;2022-07-22T15:17:41;44.60;47.00
22852;DHT22;11592;45.460;9.240;2022-07-22T15:20:10;44.40;47.90
22852;DHT22;11592;45.460;9.240;2022-07-22T15:22:37;44.10;47.20
22852;DHT22;11592;45.460;9.240;2022-07-22T15:25:04;43.80;46.30
22852;DHT22;11592;45.460;9.240;2022-07-22T15:27:30;43.40;46.50
22852;DHT22;11592;45.460;9.240;2022-07-22T15:29:57;43.40;49.20
22852;DHT22;11592;45.460;9.240;2022-07-22T15:32:24;43.30;47.80
22852;DHT22;11592;45.460;9.240;2022-07-22T15:34:51;43.20;46.00
22852;DHT22;11592;45.460;9.240;2022-07-22T15:37:18;44.60;47.90
22852;DHT22;11592;45.460;9.240;2022-07-22T15:39:46;42.70;47.70
22852;DHT22;11592;45.460;9.240;2022-07-22T15:42:13;42.70;47.90
22852;DHT22;11592;45.460;9.240;2022-07-22T15:44:41;42.60;49.40
22852;DHT22;11592;45.460;9.240;2022-07-22T15:47:08;42.50;48.20
22852;DHT22;11592;45.460;9.240;2022-07-22T15:49:35;41.80;47.50
22852;DHT22;11592;45.460;9.240;2022-07-22T15:52:02;41.40;47.90
22852;DHT22;11592;45.460;9.240;2022-07-22T15:54:29;41.20;49.40
22852;DHT22;11592;45.460;9.240;2022-07-22T15:56:56;41.30;49.60
22852;DHT22;11592;45.460;9.240;2022-07-22T15:59:43;41.10;48.50
22852;DHT22;11592;45.460;9.240;2022-07-22T16:02:11;40.80;49.50
22852;DHT22;11592;45.460;9.240;2022-07-22T16:04:38;41.00;52.70